Terminal Aerodrome Forecast
Issued by NWS

Home | Current Version | Previous Version | Text Only | Print | Product List | Glossary On
Versions: 1 2 3 4 5 6 7 8 9 10 11 12 13 14
000
FTUS44 KLUB 290500
TAFCDS
TAF
KCDS 290521Z 2906/3006 20010KT P6SM SCT180
     FM290800 36011KT P6SM FEW250
     FM300000 02018KT P6SM SCT020=

USA.gov is the U.S. government's official web portal to all federal, state and local government web resources and services.